createdAt,value
2019-04-27T00:04:16.201Z,9.67
2019-04-27T00:09:15.152Z,9.46
2019-04-27T00:14:14.997Z,9.60
2019-04-27T00:19:17.673Z,9.37
2019-04-27T00:24:15.628Z,9.34
2019-04-27T00:29:11.581Z,9.42
2019-04-27T00:34:08.327Z,9.35
2019-04-27T00:39:10.024Z,9.22
2019-04-27T00:44:06.452Z,9.49
2019-04-27T00:49:03.720Z,9.02
2019-04-27T00:53:59.899Z,8.96
2019-04-27T00:59:13.752Z,8.69
2019-04-27T01:04:13.509Z,8.72
2019-04-27T01:09:11.383Z,8.77
2019-04-27T01:14:07.305Z,8.36
2019-04-27T01:19:03.289Z,8.54
2019-04-27T01:23:59.200Z,8.55
2019-04-27T01:29:02.857Z,8.56
2019-04-27T01:33:59.062Z,8.46
2019-04-27T01:38:55.000Z,8.46
2019-04-27T01:43:50.920Z,8.49
2019-04-27T01:48:48.893Z,8.76
2019-04-27T01:53:44.895Z,8.82
2019-04-27T01:58:40.891Z,8.89
2019-04-27T02:03:44.913Z,8.94
2019-04-27T02:08:40.946Z,9.18
2019-04-27T02:13:36.871Z,9.19
2019-04-27T02:18:37.455Z,9.09
2019-04-27T02:23:30.609Z,9.14
2019-04-27T02:28:45.078Z,9.17
2019-04-27T02:33:42.918Z,9.06
2019-04-27T02:38:40.534Z,9.04
2019-04-27T02:43:44.528Z,9.24
2019-04-27T02:48:56.003Z,9.06
2019-04-27T02:53:54.323Z,9.03
2019-04-27T02:58:50.332Z,9.08
2019-04-27T03:03:46.543Z,8.90
2019-04-27T03:08:42.919Z,8.93
2019-04-27T03:13:51.556Z,8.62
2019-04-27T03:19:14.349Z,8.57
2019-04-27T03:24:01.114Z,8.36
2019-04-27T03:28:57.025Z,8.27
2019-04-27T03:33:59.155Z,8.10
2019-04-27T03:38:50.964Z,8.00
2019-04-27T03:43:46.878Z,7.99
2019-04-27T03:48:42.892Z,8.14
2019-04-27T03:53:49.891Z,7.76
2019-04-27T03:58:50.703Z,7.53
2019-04-27T04:03:46.620Z,7.47
2019-04-27T04:08:42.534Z,7.42
2019-04-27T04:13:40.355Z,7.27
2019-04-27T04:18:55.552Z,7.48
2019-04-27T04:23:52.039Z,7.21
2019-04-27T04:28:49.977Z,6.94
2019-04-27T04:33:49.203Z,6.83
2019-04-27T04:38:45.076Z,7.10
2019-04-27T04:43:43.111Z,7.33
2019-04-27T04:48:40.545Z,7.33
2019-04-27T04:53:36.576Z,7.42
2019-04-27T04:58:32.485Z,7.65
2019-04-27T05:03:28.698Z,7.79
2019-04-27T05:08:24.831Z,7.78
2019-04-27T05:13:20.749Z,7.92
2019-04-27T05:18:16.693Z,8.01
2019-04-27T05:23:12.615Z,8.29
2019-04-27T05:28:09.714Z,9.09
2019-04-27T05:33:06.291Z,10.04
2019-04-27T05:38:07.260Z,13.37
2019-04-27T05:43:00.161Z,15.24
2019-04-27T05:47:58.971Z,15.41
2019-04-27T05:52:55.814Z,14.82
2019-04-27T05:57:51.729Z,14.18
2019-04-27T06:02:48.750Z,13.63
2019-04-27T06:07:44.875Z,12.90
2019-04-27T06:12:40.792Z,12.47
2019-04-27T06:17:38.513Z,12.58
2019-04-27T06:22:34.529Z,12.70
2019-04-27T06:27:30.983Z,12.84
2019-04-27T06:32:29.630Z,12.77
2019-04-27T06:37:26.707Z,12.78
2019-04-27T06:42:22.724Z,13.15
2019-04-27T06:47:19.094Z,13.26
2019-04-27T06:52:15.172Z,13.00
2019-04-27T06:57:11.088Z,13.38
2019-04-27T07:02:08.612Z,13.75
2019-04-27T07:07:07.128Z,14.01
2019-04-27T07:12:03.044Z,14.45
2019-04-27T07:16:59.377Z,14.11
2019-04-27T07:21:56.125Z,14.62
2019-04-27T07:26:52.106Z,14.65
2019-04-27T07:31:49.561Z,15.03
2019-04-27T07:36:45.876Z,15.16
2019-04-27T07:41:42.846Z,15.14
2019-04-27T07:46:39.951Z,15.26
2019-04-27T07:51:39.334Z,15.20
2019-04-27T07:56:35.471Z,15.31
2019-04-27T08:01:31.387Z,15.36
2019-04-27T08:06:28.950Z,14.54
2019-04-27T08:11:25.037Z,15.22
2019-04-27T08:16:20.955Z,15.63
2019-04-27T08:21:18.783Z,15.71
2019-04-27T08:26:16.601Z,15.48
2019-04-27T08:31:18.675Z,15.69
2019-04-27T08:36:14.798Z,16.09
2019-04-27T08:41:10.716Z,15.85
2019-04-27T08:46:06.635Z,15.20
2019-04-27T08:51:04.962Z,14.76
2019-04-27T08:56:00.967Z,14.94
2019-04-27T09:00:56.893Z,14.83
2019-04-27T09:05:52.913Z,15.18
2019-04-27T09:10:53.508Z,15.02
2019-04-27T09:15:51.335Z,15.05
2019-04-27T09:20:55.132Z,14.73
2019-04-27T09:25:51.013Z,14.98
2019-04-27T09:30:47.049Z,14.52
2019-04-27T09:35:42.988Z,14.07
2019-04-27T09:40:38.898Z,13.89
2019-04-27T09:45:34.825Z,13.26
2019-04-27T09:50:35.941Z,12.56
2019-04-27T09:55:31.740Z,12.46
2019-04-27T10:00:27.932Z,12.32
2019-04-27T10:05:23.880Z,12.42
2019-04-27T10:10:19.895Z,12.46
2019-04-27T10:15:16.349Z,12.73
2019-04-27T10:20:12.325Z,12.76
2019-04-27T10:25:10.242Z,12.76
2019-04-27T10:30:06.968Z,12.59
2019-04-27T10:35:05.795Z,12.57
2019-04-27T10:40:03.660Z,12.74
2019-04-27T10:44:59.587Z,13.01
2019-04-27T10:49:56.692Z,13.49
2019-04-27T10:54:52.822Z,13.69
2019-04-27T10:59:48.735Z,13.15
2019-04-27T11:04:49.358Z,13.23
2019-04-27T11:09:45.274Z,13.65
2019-04-27T11:14:41.197Z,13.74
2019-04-27T11:19:37.221Z,14.09
2019-04-27T11:24:33.143Z,13.83
2019-04-27T11:29:29.064Z,13.89
2019-04-27T11:34:26.892Z,14.05
2019-04-27T11:39:23.317Z,14.29
2019-04-27T11:44:19.361Z,14.21
2019-04-27T11:49:15.680Z,14.10
2019-04-27T11:54:11.782Z,13.94
2019-04-27T11:59:07.699Z,13.43
2019-04-27T12:04:03.616Z,13.51
2019-04-27T12:08:59.536Z,13.71
2019-04-27T12:13:56.147Z,13.88
2019-04-27T12:18:52.276Z,14.08
2019-04-27T12:23:48.195Z,13.55
2019-04-27T12:28:49.047Z,13.32
2019-04-27T12:33:46.016Z,13.31
2019-04-27T12:38:42.146Z,13.22
2019-04-27T12:43:38.167Z,13.59
2019-04-27T12:48:37.063Z,13.40
2019-04-27T12:53:48.335Z,13.08
2019-04-27T12:58:47.549Z,11.91
2019-04-27T13:03:43.675Z,9.68
2019-04-27T13:08:39.588Z,8.69
2019-04-27T13:13:36.817Z,8.53
2019-04-27T13:18:32.995Z,8.63
2019-04-27T13:23:28.912Z,8.94
2019-04-27T13:28:25.657Z,9.00
2019-04-27T13:33:21.823Z,9.47
2019-04-27T13:38:18.264Z,9.41
2019-04-27T13:43:19.119Z,9.67
2019-04-27T13:48:29.354Z,9.85
2019-04-27T13:53:26.279Z,9.97
2019-04-27T13:58:22.284Z,10.02
2019-04-27T14:03:20.861Z,10.32
2019-04-27T14:08:16.078Z,10.03
2019-04-27T14:13:12.059Z,10.15
2019-04-27T14:18:08.463Z,10.27
2019-04-27T14:23:21.437Z,10.25
2019-04-27T14:28:18.319Z,10.33
2019-04-27T14:33:14.392Z,10.22
2019-04-27T14:38:10.382Z,10.25
2019-04-27T14:43:09.519Z,9.95
2019-04-27T14:48:08.240Z,9.62
2019-04-27T14:53:04.611Z,9.84
2019-04-27T14:58:00.539Z,9.97
2019-04-27T15:02:56.478Z,9.93
2019-04-27T15:07:52.435Z,10.11
2019-04-27T15:12:48.446Z,10.37
2019-04-27T15:17:44.476Z,10.69
2019-04-27T15:22:40.602Z,10.68
2019-04-27T15:27:40.308Z,10.83
2019-04-27T15:32:42.144Z,10.78
2019-04-27T15:37:46.346Z,10.47
2019-04-27T15:42:52.916Z,10.65
2019-04-27T15:47:54.079Z,10.84
2019-04-27T15:52:45.581Z,10.69
2019-04-27T15:57:42.594Z,10.90
2019-04-27T16:02:39.382Z,11.14
2019-04-27T16:07:35.400Z,11.27
2019-04-27T16:12:31.316Z,11.33
2019-04-27T16:17:30.341Z,11.22
2019-04-27T16:22:26.884Z,11.37
2019-04-27T16:27:25.891Z,11.83
2019-04-27T16:32:20.799Z,12.96
2019-04-27T16:37:22.331Z,13.81
2019-04-27T16:42:18.633Z,13.51
2019-04-27T16:47:18.840Z,13.08
2019-04-27T16:52:15.909Z,13.23
2019-04-27T16:57:10.603Z,12.84
2019-04-27T17:02:08.153Z,12.26
2019-04-27T17:07:04.422Z,12.16
2019-04-27T17:12:00.340Z,11.89
2019-04-27T17:17:18.070Z,10.99
2019-04-27T17:22:16.258Z,10.57
2019-04-27T17:27:16.406Z,10.24
2019-04-27T17:32:13.216Z,10.13
2019-04-27T17:37:09.242Z,9.86
2019-04-27T17:42:05.255Z,9.79
2019-04-27T17:47:01.178Z,9.69
2019-04-27T17:51:58.590Z,9.54
2019-04-27T17:56:54.681Z,9.31
2019-04-27T18:01:53.845Z,9.31
2019-04-27T18:06:48.537Z,9.28
2019-04-27T18:11:44.571Z,9.11
2019-04-27T18:16:40.592Z,9.08
2019-04-27T18:21:38.667Z,9.15
2019-04-27T18:26:49.233Z,9.25
2019-04-27T18:31:46.407Z,9.12
2019-04-27T18:36:43.808Z,9.02
2019-04-27T18:41:44.417Z,9.00
2019-04-27T18:46:38.807Z,8.59
2019-04-27T18:51:38.437Z,8.49
2019-04-27T18:56:38.574Z,8.39
2019-04-27T19:01:32.303Z,8.31
2019-04-27T19:06:28.991Z,8.39
2019-04-27T19:11:25.050Z,8.43
2019-04-27T19:16:22.449Z,8.49
2019-04-27T19:21:20.102Z,8.85
2019-04-27T19:26:24.427Z,8.48
2019-04-27T19:31:29.094Z,8.49
2019-04-27T19:36:25.183Z,8.33
2019-04-27T19:41:21.101Z,8.61
2019-04-27T19:46:17.019Z,8.89
2019-04-27T19:51:13.574Z,8.69
2019-04-27T19:56:09.535Z,8.86
2019-04-27T20:01:14.252Z,8.17
2019-04-27T20:06:08.043Z,8.06
2019-04-27T20:11:04.114Z,7.98
2019-04-27T20:16:00.953Z,8.04
2019-04-27T20:20:57.773Z,8.48
2019-04-27T20:25:53.689Z,8.23
2019-04-27T20:30:49.619Z,8.42
2019-04-27T20:35:45.566Z,8.32
2019-04-27T20:40:41.614Z,8.30
2019-04-27T20:45:37.690Z,8.30
2019-04-27T20:50:37.186Z,8.25
2019-04-27T20:55:33.229Z,8.29
2019-04-27T21:00:29.151Z,8.38
2019-04-27T21:05:32.768Z,8.57
2019-04-27T21:10:28.691Z,8.50
2019-04-27T21:15:24.707Z,8.23
2019-04-27T21:20:22.084Z,8.20
2019-04-27T21:25:18.013Z,8.35
2019-04-27T21:30:13.947Z,8.28
2019-04-27T21:35:10.968Z,8.55
2019-04-27T21:40:17.978Z,8.49
2019-04-27T21:45:15.203Z,8.32
2019-04-27T21:50:12.141Z,8.30
2019-04-27T21:55:11.491Z,8.25
2019-04-27T22:00:15.923Z,8.33
2019-04-27T22:05:12.311Z,8.72
2019-04-27T22:10:08.362Z,8.64
2019-04-27T22:15:04.391Z,8.28
2019-04-27T22:20:01.605Z,8.30
2019-04-27T22:25:05.608Z,8.36
2019-04-27T22:30:01.735Z,8.41
2019-04-27T22:34:57.658Z,8.17
2019-04-27T22:39:55.482Z,8.15
2019-04-27T22:44:53.380Z,8.72
2019-04-27T22:49:49.300Z,8.58
2019-04-27T22:54:45.211Z,8.40
2019-04-27T23:00:03.306Z,8.43
2019-04-27T23:04:59.431Z,8.39
2019-04-27T23:09:55.366Z,8.51
2019-04-27T23:14:51.266Z,8.29
2019-04-27T23:19:47.411Z,8.23
2019-04-27T23:24:43.332Z,8.42
2019-04-27T23:29:39.217Z,8.44
2019-04-27T23:34:35.231Z,8.28
2019-04-27T23:39:31.146Z,8.34
2019-04-27T23:44:27.060Z,8.07
2019-04-27T23:49:23.003Z,8.46
2019-04-27T23:54:18.919Z,8.42
2019-04-27T23:59:24.749Z,8.19
